createdAt,value
2022-09-13T00:02:00.476Z,1.33
2022-09-13T00:04:27.728Z,0.20
2022-09-13T00:06:54.801Z,0.65
2022-09-13T00:09:24.368Z,0.30
2022-09-13T00:11:52.173Z,0.50
2022-09-13T00:14:22.115Z,0.70
2022-09-13T00:16:49.265Z,1.40
2022-09-13T00:19:16.341Z,2.92
2022-09-13T00:21:43.771Z,0.75
2022-09-13T00:24:10.898Z,0.40
2022-09-13T00:26:37.992Z,0.20
2022-09-13T00:29:05.193Z,0.50
2022-09-13T00:31:32.333Z,0.50
2022-09-13T00:34:00.485Z,0.20
2022-09-13T00:36:28.250Z,0.10
2022-09-13T00:38:55.523Z,0.63
2022-09-13T00:41:23.682Z,0.10
2022-09-13T00:43:54.278Z,1.13
2022-09-13T00:46:35.637Z,0.77
2022-09-13T00:49:14.729Z,0.20
2022-09-13T00:51:57.355Z,0.10
2022-09-13T00:54:31.398Z,0.73
2022-09-13T00:57:01.997Z,0.20
2022-09-13T00:59:37.573Z,0.10
2022-09-13T01:02:05.111Z,0.25
2022-09-13T01:04:35.024Z,0.55
2022-09-13T01:07:07.855Z,0.10
2022-09-13T01:09:40.083Z,0.03
2022-09-13T01:12:20.872Z,0.52
2022-09-13T01:14:49.922Z,0.45
2022-09-13T01:17:19.558Z,0.30
2022-09-13T01:19:46.808Z,0.10
2022-09-13T01:22:25.907Z,0.93
2022-09-13T01:25:15.341Z,0.28
2022-09-13T01:27:45.165Z,0.55
2022-09-13T01:30:19.261Z,0.10
2022-09-13T01:33:04.918Z,0.17
2022-09-13T01:35:53.021Z,0.10
2022-09-13T01:39:01.074Z,0.45
2022-09-13T01:41:42.865Z,0.05
2022-09-13T01:44:44.178Z,0.10
2022-09-13T01:47:38.460Z,0.57
2022-09-13T01:50:14.314Z,0.60
2022-09-13T01:53:18.955Z,0.00
2022-09-13T01:56:02.510Z,0.10
2022-09-13T01:58:44.208Z,0.03
2022-09-13T02:01:24.148Z,0.50
2022-09-13T02:04:09.020Z,0.25
2022-09-13T02:06:47.991Z,7.83
2022-09-13T02:09:29.450Z,0.10
2022-09-13T02:12:06.997Z,0.10
2022-09-13T02:14:40.147Z,0.00
2022-09-13T02:17:24.330Z,0.20
2022-09-13T02:20:04.301Z,0.03
2022-09-13T02:22:34.995Z,0.10
2022-09-13T02:25:16.200Z,0.00
2022-09-13T02:27:48.325Z,0.00
2022-09-13T02:30:16.126Z,0.45
2022-09-13T02:32:51.236Z,0.20
2022-09-13T02:35:31.519Z,0.00
2022-09-13T02:38:07.059Z,0.95
2022-09-13T02:40:49.682Z,0.65
2022-09-13T02:43:32.712Z,1.20
2022-09-13T02:46:17.810Z,0.47
2022-09-13T02:49:01.312Z,1.63
2022-09-13T02:51:57.894Z,1.23
2022-09-13T02:54:57.365Z,1.45
2022-09-13T02:57:36.781Z,0.00
2022-09-13T03:00:06.055Z,0.00
2022-09-13T03:02:34.368Z,0.00
2022-09-13T03:05:02.570Z,0.10
2022-09-13T03:07:32.495Z,0.10
2022-09-13T03:10:06.056Z,0.10
2022-09-13T03:13:11.850Z,0.60
2022-09-13T03:15:53.679Z,0.03
2022-09-13T03:18:49.427Z,0.45
2022-09-13T03:21:31.597Z,0.00
2022-09-13T03:24:25.469Z,0.00
2022-09-13T03:27:00.436Z,0.30
2022-09-13T03:29:37.175Z,0.00
2022-09-13T03:32:37.416Z,0.22
2022-09-13T03:35:22.661Z,0.22
2022-09-13T03:38:12.041Z,1.65
2022-09-13T03:40:45.671Z,0.00
2022-09-13T03:43:32.428Z,0.10
2022-09-13T03:46:03.938Z,0.00
2022-09-13T03:48:38.007Z,0.93
2022-09-13T03:51:08.983Z,0.65
2022-09-13T03:53:40.794Z,1.02
2022-09-13T03:56:16.048Z,0.63
2022-09-13T03:58:44.054Z,0.75
2022-09-13T04:01:11.449Z,0.00
2022-09-13T04:03:41.549Z,0.30
2022-09-13T04:06:09.302Z,1.23
2022-09-13T04:08:36.348Z,0.00
2022-09-13T04:11:03.610Z,1.08
2022-09-13T04:13:30.717Z,0.52
2022-09-13T04:16:03.625Z,0.30
2022-09-13T04:18:31.363Z,5.13
2022-09-13T04:21:02.970Z,0.68
2022-09-13T04:23:30.725Z,0.10
2022-09-13T04:26:02.858Z,0.52
2022-09-13T04:28:29.910Z,1.80
2022-09-13T04:30:58.243Z,0.17
2022-09-13T04:33:25.319Z,0.28
2022-09-13T04:35:59.808Z,0.65
2022-09-13T04:38:27.306Z,0.25
2022-09-13T04:40:57.638Z,0.10
2022-09-13T04:43:25.282Z,0.38
2022-09-13T04:45:54.909Z,0.73
2022-09-13T04:48:22.003Z,0.00
2022-09-13T04:50:49.388Z,0.10
2022-09-13T04:53:16.629Z,0.10
2022-09-13T04:55:43.700Z,0.17
2022-09-13T04:58:12.132Z,0.13
2022-09-13T05:00:42.231Z,0.00
2022-09-13T05:03:09.324Z,0.13
2022-09-13T05:05:38.059Z,1.85
2022-09-13T05:08:05.117Z,0.32
2022-09-13T05:10:32.126Z,0.00
2022-09-13T05:13:01.506Z,0.00
2022-09-13T05:15:28.578Z,1.65
2022-09-13T05:17:55.631Z,1.63
2022-09-13T05:20:22.845Z,0.20
2022-09-13T05:22:49.904Z,0.10
2022-09-13T05:25:17.117Z,0.00
2022-09-13T05:27:45.893Z,0.00
2022-09-13T05:30:13.370Z,0.20
2022-09-13T05:32:40.375Z,1.00
2022-09-13T05:35:08.194Z,0.32
2022-09-13T05:37:35.281Z,0.00
2022-09-13T05:40:11.971Z,0.57
2022-09-13T05:42:40.719Z,0.00
2022-09-13T05:45:08.694Z,0.00
2022-09-13T05:47:35.798Z,0.00
2022-09-13T05:50:26.567Z,0.00
2022-09-13T05:52:56.179Z,0.10
2022-09-13T05:55:24.064Z,0.65
2022-09-13T05:57:51.045Z,0.10
2022-09-13T06:00:18.550Z,0.20
2022-09-13T06:02:45.749Z,0.00
2022-09-13T06:05:13.120Z,0.00
2022-09-13T06:07:41.979Z,0.40
2022-09-13T06:10:13.738Z,0.13
2022-09-13T06:12:40.848Z,0.13
2022-09-13T06:15:09.355Z,0.30
2022-09-13T06:17:36.378Z,0.35
2022-09-13T06:20:04.286Z,0.90
2022-09-13T06:22:35.346Z,0.00
2022-09-13T06:25:02.460Z,0.35
2022-09-13T06:27:33.968Z,0.50
2022-09-13T06:30:01.117Z,0.70
2022-09-13T06:32:28.166Z,0.20
2022-09-13T06:34:55.416Z,1.63
2022-09-13T06:37:22.746Z,0.88
2022-09-13T06:39:49.918Z,1.15
2022-09-13T06:42:17.322Z,0.43
2022-09-13T06:44:46.187Z,0.10
2022-09-13T06:47:15.842Z,0.13
2022-09-13T06:49:42.929Z,0.40
2022-09-13T06:52:09.969Z,1.92
2022-09-13T06:54:39.647Z,0.15
2022-09-13T06:57:06.822Z,0.35
2022-09-13T06:59:35.270Z,1.10
2022-09-13T07:02:02.768Z,0.65
2022-09-13T07:04:32.627Z,0.93
2022-09-13T07:07:02.547Z,0.52
2022-09-13T07:09:30.079Z,0.20
2022-09-13T07:11:57.780Z,0.10
2022-09-13T07:14:30.904Z,0.40
2022-09-13T07:16:58.421Z,2.33
2022-09-13T07:19:27.228Z,2.20
2022-09-13T07:21:56.676Z,1.65
2022-09-13T07:24:24.547Z,2.72
2022-09-13T07:26:52.265Z,0.63
2022-09-13T07:29:23.855Z,0.90
2022-09-13T07:31:55.181Z,0.15
2022-09-13T07:34:25.132Z,1.25
2022-09-13T07:36:52.847Z,0.30
2022-09-13T07:39:22.874Z,0.20
2022-09-13T07:41:51.101Z,2.13
2022-09-13T07:44:18.379Z,0.93
2022-09-13T07:46:45.853Z,1.85
2022-09-13T07:49:16.849Z,0.40
2022-09-13T07:51:44.787Z,0.73
2022-09-13T07:54:15.189Z,1.42
2022-09-13T07:56:43.418Z,0.85
2022-09-13T07:59:17.774Z,0.10
2022-09-13T08:01:50.525Z,0.73
2022-09-13T08:04:20.143Z,1.77
2022-09-13T08:06:47.638Z,0.68
2022-09-13T08:09:15.881Z,0.73
2022-09-13T08:11:47.189Z,0.82
2022-09-13T08:14:16.820Z,0.60
2022-09-13T08:16:44.262Z,1.00
2022-09-13T08:19:14.755Z,2.05
2022-09-13T08:21:42.632Z,1.45
2022-09-13T08:24:18.460Z,1.13
2022-09-13T08:26:46.161Z,2.60
2022-09-13T08:29:14.640Z,1.15
2022-09-13T08:31:41.780Z,2.00
2022-09-13T08:34:14.835Z,0.65
2022-09-13T08:36:42.643Z,1.13
2022-09-13T08:39:12.117Z,0.85
2022-09-13T08:41:42.623Z,0.52
2022-09-13T08:44:18.906Z,1.20
2022-09-13T08:46:47.245Z,0.85
2022-09-13T08:49:34.698Z,0.30
2022-09-13T08:52:23.078Z,1.38
2022-09-13T08:54:54.893Z,1.20
2022-09-13T08:57:38.849Z,0.77
2022-09-13T09:00:38.667Z,1.27
2022-09-13T09:03:37.702Z,0.75
2022-09-13T09:06:14.160Z,0.73
2022-09-13T09:08:58.867Z,1.15
2022-09-13T09:11:42.213Z,0.32
2022-09-13T09:14:20.982Z,0.20
2022-09-13T09:16:57.758Z,0.10
2022-09-13T09:19:48.477Z,1.08
2022-09-13T09:22:24.482Z,0.52
2022-09-13T09:24:55.785Z,2.15
2022-09-13T09:27:23.804Z,1.10
2022-09-13T09:29:58.333Z,0.73
2022-09-13T09:32:56.808Z,0.25
2022-09-13T09:35:31.636Z,1.63
2022-09-13T09:38:31.473Z,1.65
2022-09-13T09:41:06.967Z,0.35
2022-09-13T09:43:46.839Z,1.33
2022-09-13T09:46:17.907Z,0.70
2022-09-13T09:48:52.869Z,0.40
2022-09-13T09:51:25.057Z,1.38
2022-09-13T09:54:02.625Z,1.05
2022-09-13T09:56:33.426Z,0.47
2022-09-13T09:59:00.831Z,0.50
2022-09-13T10:01:30.089Z,0.93
2022-09-13T10:04:12.626Z,1.20
2022-09-13T10:06:42.105Z,2.28
2022-09-13T10:09:16.766Z,0.20
2022-09-13T10:11:49.661Z,1.20
2022-09-13T10:14:46.170Z,2.35
2022-09-13T10:17:25.745Z,1.50
2022-09-13T10:19:59.451Z,0.50
2022-09-13T10:22:28.761Z,1.58
2022-09-13T10:24:57.227Z,0.20
2022-09-13T10:27:37.778Z,1.40
2022-09-13T10:30:06.678Z,0.57
2022-09-13T10:32:34.081Z,1.83
2022-09-13T10:35:10.978Z,1.70
2022-09-13T10:37:43.234Z,2.35
2022-09-13T10:40:30.172Z,0.32
2022-09-13T10:42:58.755Z,1.77
2022-09-13T10:45:28.776Z,2.40
2022-09-13T10:48:18.451Z,0.40
2022-09-13T10:51:06.762Z,1.48
2022-09-13T10:53:38.569Z,0.40
2022-09-13T10:56:18.680Z,0.40
2022-09-13T10:58:45.742Z,0.63
2022-09-13T11:02:06.006Z,1.45
2022-09-13T11:04:51.141Z,0.77
2022-09-13T11:07:47.381Z,1.13
2022-09-13T11:13:03.017Z,0.98
2022-09-13T11:16:07.802Z,0.85
2022-09-13T11:18:55.887Z,0.68
2022-09-13T11:21:22.983Z,1.55
2022-09-13T11:24:17.781Z,0.47
2022-09-13T11:27:00.177Z,0.45
2022-09-13T11:29:40.004Z,1.08
2022-09-13T11:32:33.734Z,0.88
2022-09-13T11:35:24.384Z,0.43
2022-09-13T11:38:17.723Z,1.05
2022-09-13T11:41:16.805Z,0.75
2022-09-13T11:44:28.867Z,0.30
2022-09-13T11:47:24.134Z,1.83
2022-09-13T11:50:16.083Z,0.47
2022-09-13T11:53:09.145Z,1.30
2022-09-13T11:55:40.845Z,0.50
2022-09-13T11:58:15.209Z,0.32
2022-09-13T12:00:47.199Z,0.50
2022-09-13T12:03:56.115Z,1.05
2022-09-13T12:06:29.124Z,0.65
2022-09-13T12:09:02.451Z,0.55
2022-09-13T12:11:34.762Z,1.02
2022-09-13T12:14:06.773Z,1.38
2022-09-13T12:16:47.020Z,0.40
2022-09-13T12:19:17.413Z,0.20
2022-09-13T12:21:45.831Z,1.33
2022-09-13T12:24:52.646Z,0.22
2022-09-13T12:27:43.083Z,0.25
2022-09-13T12:30:22.074Z,1.70
2022-09-13T12:32:50.105Z,0.73
2022-09-13T12:35:28.057Z,0.28
2022-09-13T12:37:58.231Z,0.40
2022-09-13T12:40:38.034Z,0.10
2022-09-13T12:43:32.611Z,0.57
2022-09-13T12:46:06.774Z,0.10
2022-09-13T12:48:45.886Z,0.20
2022-09-13T12:51:31.088Z,0.40
2022-09-13T12:54:23.811Z,0.30
2022-09-13T12:57:28.749Z,2.05
2022-09-13T12:59:55.710Z,1.88
2022-09-13T13:02:26.174Z,0.20
2022-09-13T13:04:58.610Z,0.63
2022-09-13T13:07:27.506Z,0.13
2022-09-13T13:09:56.941Z,0.70
2022-09-13T13:12:37.048Z,0.30
2022-09-13T13:15:16.290Z,0.28
2022-09-13T13:17:54.387Z,0.20
2022-09-13T13:20:52.497Z,8.93
2022-09-13T13:23:38.449Z,0.28
2022-09-13T13:26:15.067Z,0.40
2022-09-13T13:28:45.569Z,0.20
2022-09-13T13:31:25.189Z,0.28
2022-09-13T13:33:58.531Z,1.30
2022-09-13T13:36:45.648Z,0.30
2022-09-13T13:39:23.059Z,0.40
2022-09-13T13:42:22.664Z,0.40
2022-09-13T13:44:53.213Z,1.02
2022-09-13T13:47:20.498Z,0.17
2022-09-13T13:50:12.346Z,0.55
2022-09-13T13:52:51.342Z,0.30
2022-09-13T13:55:31.278Z,1.02
2022-09-13T13:58:43.358Z,0.32
2022-09-13T14:01:22.634Z,0.82
2022-09-13T14:03:53.214Z,2.33
2022-09-13T14:06:49.895Z,1.50
2022-09-13T14:09:33.219Z,0.43
2022-09-13T14:12:25.968Z,0.63
2022-09-13T14:15:02.066Z,0.60
2022-09-13T14:18:20.188Z,1.35
2022-09-13T14:21:04.821Z,0.95
2022-09-13T14:23:32.528Z,0.90
2022-09-13T14:26:01.209Z,2.53
2022-09-13T14:28:28.998Z,0.60
2022-09-13T14:30:58.608Z,0.45
2022-09-13T14:33:36.381Z,1.02
2022-09-13T14:36:15.983Z,0.65
2022-09-13T14:38:55.330Z,0.20
2022-09-13T14:41:33.164Z,1.80
2022-09-13T14:44:28.394Z,1.88
2022-09-13T14:47:15.347Z,1.52
2022-09-13T14:49:49.875Z,0.65
2022-09-13T14:52:42.369Z,1.20
2022-09-13T14:55:17.389Z,2.72
2022-09-13T14:57:50.352Z,1.30
2022-09-13T15:00:20.937Z,2.25
2022-09-13T15:03:04.080Z,1.65
2022-09-13T15:05:36.813Z,2.70
2022-09-13T15:08:26.812Z,2.42
2022-09-13T15:10:57.901Z,3.40
2022-09-13T15:13:25.694Z,1.42
2022-09-13T15:15:53.367Z,1.08
2022-09-13T15:18:20.516Z,2.17
2022-09-13T15:25:28.084Z,0.93
2022-09-13T15:27:57.485Z,1.40
2022-09-13T15:30:30.386Z,2.67
2022-09-13T15:33:19.754Z,1.30
2022-09-13T15:35:48.003Z,1.38
2022-09-13T15:38:15.207Z,0.65
2022-09-13T15:40:45.178Z,1.17
2022-09-13T15:43:12.342Z,0.82
2022-09-13T15:45:40.182Z,2.20
2022-09-13T15:48:08.005Z,1.25
2022-09-13T15:50:37.095Z,4.10
2022-09-13T15:53:11.745Z,1.63
2022-09-13T15:55:40.330Z,1.35
2022-09-13T15:58:09.835Z,1.75
2022-09-13T16:00:37.253Z,1.17
2022-09-13T16:03:04.617Z,3.53
2022-09-13T16:05:32.772Z,0.77
2022-09-13T16:07:59.784Z,1.50
2022-09-13T16:10:28.556Z,2.25
2022-09-13T16:12:55.767Z,2.90
2022-09-13T16:15:23.801Z,1.38
2022-09-13T16:17:50.872Z,0.95
2022-09-13T16:20:18.209Z,1.27
2022-09-13T16:22:45.985Z,0.50
2022-09-13T16:25:14.992Z,2.22
2022-09-13T16:27:44.948Z,1.08
2022-09-13T16:30:16.776Z,1.85
2022-09-13T16:32:44.442Z,1.52
2022-09-13T16:35:12.586Z,1.38
2022-09-13T16:37:41.237Z,2.70
2022-09-13T16:40:10.347Z,0.93
2022-09-13T16:42:38.037Z,2.22
2022-09-13T16:45:05.675Z,0.43
2022-09-13T16:47:33.094Z,2.17
2022-09-13T16:50:00.647Z,1.67
2022-09-13T16:52:29.427Z,3.95
2022-09-13T16:54:57.183Z,1.92
2022-09-13T16:57:24.756Z,1.38
2022-09-13T16:59:52.870Z,1.55
2022-09-13T17:02:20.981Z,1.17
2022-09-13T17:04:48.558Z,3.08
2022-09-13T17:07:15.671Z,6.38
2022-09-13T17:09:43.095Z,2.38
2022-09-13T17:12:12.672Z,2.40
2022-09-13T17:14:47.531Z,2.53
2022-09-13T17:17:18.388Z,2.15
2022-09-13T17:19:45.814Z,1.77
2022-09-13T17:22:12.849Z,2.92
2022-09-13T17:24:40.596Z,2.97
2022-09-13T17:27:11.225Z,2.20
2022-09-13T17:29:38.399Z,4.13
2022-09-13T17:32:06.648Z,2.42
2022-09-13T17:34:34.825Z,3.90
2022-09-13T17:37:03.857Z,4.20
2022-09-13T17:39:31.470Z,3.05
2022-09-13T17:41:59.022Z,1.42
2022-09-13T17:44:26.591Z,2.40
2022-09-13T17:46:54.045Z,3.85
2022-09-13T17:49:21.356Z,1.90
2022-09-13T17:51:48.493Z,2.65
2022-09-13T17:54:15.810Z,1.23
2022-09-13T17:56:44.578Z,2.97
2022-09-13T17:59:17.308Z,4.25
2022-09-13T18:01:47.417Z,2.83
2022-09-13T18:04:16.894Z,1.38
2022-09-13T18:06:44.585Z,3.53
2022-09-13T18:09:14.150Z,2.00
2022-09-13T18:11:42.569Z,0.90
2022-09-13T18:14:15.738Z,1.70
2022-09-13T18:16:43.717Z,2.50
2022-09-13T18:19:12.675Z,0.88
2022-09-13T18:21:39.743Z,1.90
2022-09-13T18:24:07.518Z,2.78
2022-09-13T18:26:36.373Z,1.65
2022-09-13T18:29:05.856Z,4.28
2022-09-13T18:31:35.326Z,1.80
2022-09-13T18:34:05.763Z,1.23
2022-09-13T18:36:33.799Z,1.15
2022-09-13T18:39:04.347Z,3.45
2022-09-13T18:41:36.761Z,2.85
2022-09-13T18:44:06.813Z,1.70
2022-09-13T18:46:35.195Z,1.33
2022-09-13T18:49:03.711Z,4.63
2022-09-13T18:51:34.073Z,3.40
2022-09-13T18:54:01.985Z,2.80
2022-09-13T18:56:29.811Z,4.43
2022-09-13T18:58:58.985Z,4.43
2022-09-13T19:01:30.854Z,5.63
2022-09-13T19:04:03.716Z,4.57
2022-09-13T19:06:33.494Z,3.67
2022-09-13T19:09:01.713Z,4.60
2022-09-13T19:11:49.456Z,2.50
2022-09-13T19:14:18.333Z,2.95
2022-09-13T19:16:45.721Z,7.05
2022-09-13T19:19:13.114Z,8.05
2022-09-13T19:21:40.529Z,3.05
2022-09-13T19:24:14.864Z,3.45
2022-09-13T19:26:45.286Z,3.47
2022-09-13T19:29:14.575Z,3.67
2022-09-13T19:31:43.853Z,4.05
2022-09-13T19:34:11.629Z,4.03
2022-09-13T19:36:39.730Z,4.97
2022-09-13T19:39:08.054Z,5.72
2022-09-13T19:41:38.209Z,3.60
2022-09-13T19:44:05.834Z,4.78
2022-09-13T19:46:39.739Z,4.60
2022-09-13T19:49:08.741Z,6.82
2022-09-13T19:51:37.679Z,3.50
2022-09-13T19:54:06.545Z,5.25
2022-09-13T19:56:39.935Z,5.68
2022-09-13T19:59:08.487Z,4.75
2022-09-13T20:01:38.883Z,8.40
2022-09-13T20:04:12.015Z,6.70
2022-09-13T20:06:48.014Z,2.83
2022-09-13T20:09:17.456Z,4.22
2022-09-13T20:11:45.809Z,5.18
2022-09-13T20:14:15.045Z,2.55
2022-09-13T20:16:45.877Z,6.13
2022-09-13T20:22:07.988Z,2.88
2022-09-13T20:24:35.409Z,5.18
2022-09-13T20:27:02.447Z,14.02
2022-09-13T20:29:29.510Z,17.98
2022-09-13T20:31:56.617Z,21.23
2022-09-13T20:34:23.639Z,15.02
2022-09-13T20:36:50.902Z,15.98
2022-09-13T20:39:18.120Z,10.63
2022-09-13T20:41:45.350Z,7.22
2022-09-13T20:44:12.764Z,7.88
2022-09-13T20:46:40.639Z,7.18
2022-09-13T20:49:09.350Z,6.70
2022-09-13T20:51:37.807Z,8.68
2022-09-13T20:54:05.406Z,7.55
2022-09-13T20:56:34.691Z,9.98
2022-09-13T20:59:02.847Z,7.93
2022-09-13T21:01:31.673Z,10.80
2022-09-13T21:03:59.733Z,7.85
2022-09-13T21:06:29.793Z,5.05
2022-09-13T21:09:00.226Z,7.32
2022-09-13T21:11:35.317Z,5.60
2022-09-13T21:14:05.929Z,9.30
2022-09-13T21:16:35.858Z,7.03
2022-09-13T21:19:07.313Z,4.72
2022-09-13T21:21:37.945Z,4.57
2022-09-13T21:24:08.829Z,7.05
2022-09-13T21:26:37.078Z,4.07
2022-09-13T21:29:04.254Z,3.90
2022-09-13T21:31:33.704Z,3.38
2022-09-13T21:34:04.238Z,6.22
2022-09-13T21:36:34.759Z,5.90
2022-09-13T21:39:02.483Z,6.30
2022-09-13T21:41:30.329Z,2.20
2022-09-13T21:43:57.469Z,2.88
2022-09-13T21:46:34.093Z,5.20
2022-09-13T21:49:06.944Z,6.35
2022-09-13T21:51:47.005Z,3.45
2022-09-13T21:54:16.751Z,2.38
2022-09-13T21:56:50.374Z,3.92
2022-09-13T21:59:19.948Z,4.05
2022-09-13T22:01:50.551Z,5.22
2022-09-13T22:04:20.897Z,3.38
2022-09-13T22:06:51.699Z,4.60
2022-09-13T22:09:27.042Z,7.40
2022-09-13T22:11:55.957Z,3.25
2022-09-13T22:14:23.474Z,3.53
2022-09-13T22:16:52.885Z,4.68
2022-09-13T22:19:23.729Z,2.83
2022-09-13T22:21:59.340Z,3.38
2022-09-13T22:24:28.828Z,3.38
2022-09-13T22:26:58.364Z,4.75
2022-09-13T22:29:25.702Z,5.65
2022-09-13T22:31:52.992Z,4.22
2022-09-13T22:34:24.098Z,4.75
2022-09-13T22:36:53.052Z,4.10
2022-09-13T22:39:20.105Z,4.88
2022-09-13T22:41:47.691Z,1.48
2022-09-13T22:44:15.667Z,2.00
2022-09-13T22:46:44.943Z,3.45
2022-09-13T22:49:17.429Z,2.25
2022-09-13T22:51:45.842Z,3.33
2022-09-13T22:54:14.027Z,4.10
2022-09-13T22:56:41.590Z,3.35
2022-09-13T22:59:17.883Z,2.63
2022-09-13T23:01:45.857Z,3.08
2022-09-13T23:04:13.367Z,6.00
2022-09-13T23:06:41.006Z,2.45
2022-09-13T23:09:09.011Z,4.55
2022-09-13T23:11:38.830Z,2.63
2022-09-13T23:14:10.330Z,7.15
2022-09-13T23:16:50.243Z,2.28
2022-09-13T23:19:20.130Z,3.78
2022-09-13T23:21:47.230Z,4.18
2022-09-13T23:24:17.324Z,2.35
2022-09-13T23:26:45.803Z,3.75
2022-09-13T23:29:15.511Z,6.35
2022-09-13T23:31:43.578Z,5.05
2022-09-13T23:34:12.057Z,1.98
2022-09-13T23:36:42.053Z,3.85
2022-09-13T23:39:16.863Z,4.82
2022-09-13T23:41:45.818Z,8.50
2022-09-13T23:44:13.246Z,2.15
2022-09-13T23:46:40.646Z,3.13
2022-09-13T23:49:07.788Z,5.07
2022-09-13T23:51:34.934Z,1.85
2022-09-13T23:54:02.304Z,3.85
2022-09-13T23:56:31.857Z,4.25
2022-09-13T23:59:01.360Z,1.13
